Time;durP1;ratioP1;P1;durP2;ratioP2;P2;SDS_P1;SDS_P2;PMS_P1;PMS_P2;Temp;Humidity;BMP_temperature;BMP_pressure;BME280_temperature;BME280_humidity;BME280_pressure;Samples;Min_cycle;Max_cycle;Signal;HPM_P1;HPM_P2
2023/05/24 00:01:11;;;;;;;3.78;3.47;;;17.60;99.90;;;;;;5038487;28;20257;-75
2023/05/24 00:03:38;;;;;;;4.38;3.40;;;17.60;99.90;;;;;;5037544;28;20239;-75
2023/05/24 00:06:05;;;;;;;3.63;3.33;;;17.60;99.90;;;;;;5037007;28;20878;-76
2023/05/24 00:08:32;;;;;;;3.58;3.33;;;17.50;99.90;;;;;;5040374;28;20242;-75
2023/05/24 00:11:01;;;;;;;3.70;3.40;;;17.50;99.90;;;;;;5036753;28;20250;-76
2023/05/24 00:13:28;;;;;;;3.78;3.47;;;17.50;99.90;;;;;;5038895;28;20242;-77
2023/05/24 00:15:55;;;;;;;3.58;3.28;;;17.50;99.90;;;;;;5040803;28;20219;-75
2023/05/24 00:18:22;;;;;;;3.40;3.20;;;17.50;99.90;;;;;;5036113;28;20204;-78
2023/05/24 00:20:50;;;;;;;3.55;3.25;;;17.50;99.90;;;;;;5037171;28;20219;-78
2023/05/24 00:23:17;;;;;;;3.50;3.17;;;17.50;99.90;;;;;;5039896;28;20255;-78
2023/05/24 00:25:44;;;;;;;4.20;3.90;;;17.60;99.90;;;;;;5032675;28;20225;-76
2023/05/24 00:28:12;;;;;;;3.42;3.22;;;17.60;99.90;;;;;;5036446;28;20578;-79
2023/05/24 00:30:39;;;;;;;3.70;3.40;;;17.60;99.90;;;;;;5032418;28;20227;-75
2023/05/24 00:33:06;;;;;;;3.50;3.20;;;17.60;99.90;;;;;;5040600;28;20194;-75
2023/05/24 00:35:33;;;;;;;3.30;3.00;;;17.70;99.90;;;;;;5045850;28;20457;-77
2023/05/24 00:38:00;;;;;;;3.78;3.42;;;17.70;99.90;;;;;;5040660;28;20203;-77
2023/05/24 00:40:27;;;;;;;3.58;3.30;;;17.70;99.90;;;;;;5037513;28;20214;-77
2023/05/24 00:42:56;;;;;;;3.58;3.15;;;17.70;99.90;;;;;;5038220;28;20199;-76
2023/05/24 00:45:24;;;;;;;3.50;3.30;;;17.70;99.90;;;;;;5034944;28;20365;-77
2023/05/24 00:47:51;;;;;;;3.17;2.97;;;17.60;99.90;;;;;;5036192;28;20200;-77
2023/05/24 00:50:19;;;;;;;3.88;3.58;;;17.60;99.90;;;;;;5047714;28;20238;-77
2023/05/24 00:52:49;;;;;;;3.20;2.88;;;17.70;99.90;;;;;;5043456;28;20206;-77
2023/05/24 00:55:16;;;;;;;3.47;3.20;;;17.70;99.90;;;;;;5040400;28;20226;-77
2023/05/24 00:57:43;;;;;;;3.50;3.20;;;17.70;99.90;;;;;;5042514;28;20258;-76
2023/05/24 01:00:11;;;;;;;3.55;3.25;;;17.70;99.90;;;;;;5045329;28;20499;-77
2023/05/24 01:02:40;;;;;;;2.80;2.60;;;17.70;99.90;;;;;;5043061;28;20219;-76
2023/05/24 01:05:12;;;;;;;3.50;3.10;;;17.60;99.90;;;;;;5044396;28;20285;-76
2023/05/24 01:07:48;;;;;;;3.58;3.28;;;17.50;99.90;;;;;;5046103;28;20623;-77
2023/05/24 01:10:25;;;;;;;3.30;3.10;;;17.50;99.90;;;;;;5043299;28;20226;-77
2023/05/24 01:12:59;;;;;;;3.67;3.38;;;17.50;99.90;;;;;;5043778;28;20828;-76
2023/05/24 01:15:37;;;;;;;3.00;2.80;;;17.40;99.90;;;;;;5044203;28;20913;-77
2023/05/24 01:18:14;;;;;;;3.03;2.83;;;17.40;99.90;;;;;;5045443;28;20736;-76
2023/05/24 01:20:42;;;;;;;2.85;2.63;;;17.40;99.90;;;;;;5043413;28;20213;-77
2023/05/24 01:23:28;;;;;;;3.03;2.83;;;17.40;99.90;;;;;;5040789;28;20234;-77
2023/05/24 01:26:08;;;;;;;3.15;2.95;;;17.40;99.90;;;;;;5043038;28;20216;-77
2023/05/24 01:28:39;;;;;;;3.60;3.30;;;17.40;99.90;;;;;;5041843;28;20267;-77
2023/05/24 01:31:07;;;;;;;3.00;2.80;;;17.40;99.90;;;;;;5038388;28;20215;-77
2023/05/24 01:33:34;;;;;;;3.08;2.88;;;17.40;99.90;;;;;;5042228;28;20229;-76
2023/05/24 01:36:01;;;;;;;3.17;2.97;;;17.40;99.90;;;;;;5038491;28;20231;-77
2023/05/24 01:38:28;;;;;;;3.38;3.13;;;17.40;99.90;;;;;;5041440;28;20336;-77
2023/05/24 01:41:02;;;;;;;2.80;2.60;;;17.40;99.90;;;;;;5038556;28;20212;-77
2023/05/24 01:43:35;;;;;;;2.67;2.58;;;17.50;99.90;;;;;;5045010;28;20195;-76
2023/05/24 01:46:19;;;;;;;2.90;2.70;;;17.40;99.90;;;;;;5045451;28;20251;-77
2023/05/24 01:48:56;;;;;;;3.78;2.90;;;17.40;99.90;;;;;;5042338;28;21069;-78
2023/05/24 01:51:30;;;;;;;3.10;2.90;;;17.40;99.90;;;;;;5042761;28;20229;-77
2023/05/24 01:53:59;;;;;;;3.10;2.80;;;17.40;99.90;;;;;;5041547;28;20417;-77
2023/05/24 01:56:27;;;;;;;2.95;2.75;;;17.50;99.90;;;;;;5040162;28;20220;-77
2023/05/24 01:58:56;;;;;;;2.92;2.60;;;17.40;99.90;;;;;;5042927;28;20203;-76
2023/05/24 02:01:25;;;;;;;3.30;3.10;;;17.40;99.90;;;;;;5041884;28;20306;-77
2023/05/24 02:03:52;;;;;;;2.83;2.55;;;17.40;99.90;;;;;;5042145;28;20230;-77
2023/05/24 02:06:19;;;;;;;3.00;2.80;;;17.40;99.90;;;;;;5047077;28;20230;-77
2023/05/24 02:08:46;;;;;;;3.40;3.10;;;17.40;99.90;;;;;;5042339;28;20195;-76
2023/05/24 02:11:13;;;;;;;3.30;3.10;;;17.40;99.90;;;;;;5039208;28;20270;-77
2023/05/24 02:13:40;;;;;;;4.60;3.60;;;17.40;99.90;;;;;;5043077;28;20191;-77
2023/05/24 02:16:07;;;;;;;3.20;3.00;;;17.30;99.90;;;;;;5046446;28;20222;-76
2023/05/24 02:18:35;;;;;;;3.85;2.90;;;17.30;99.90;;;;;;5038010;28;20230;-77
2023/05/24 02:21:02;;;;;;;3.05;2.75;;;17.40;99.90;;;;;;5043994;28;20210;-76
2023/05/24 02:23:29;;;;;;;3.15;2.95;;;17.40;99.90;;;;;;5047411;28;20188;-77
2023/05/24 02:25:56;;;;;;;3.22;3.03;;;17.30;99.90;;;;;;5040986;28;20222;-77
2023/05/24 02:28:23;;;;;;;3.00;2.80;;;17.30;99.90;;;;;;5039529;28;20222;-77
2023/05/24 02:30:50;;;;;;;3.22;3.03;;;17.30;99.90;;;;;;5038331;28;20208;-77
2023/05/24 02:33:17;;;;;;;3.00;2.80;;;17.40;99.90;;;;;;5041210;28;20200;-77
2023/05/24 02:35:45;;;;;;;3.03;2.83;;;17.30;99.90;;;;;;5040160;28;20740;-77
2023/05/24 02:38:12;;;;;;;3.08;2.88;;;17.30;99.90;;;;;;5039451;28;20222;-77
2023/05/24 02:40:39;;;;;;;3.03;2.83;;;17.30;99.90;;;;;;5042376;28;20204;-77
2023/05/24 02:43:06;;;;;;;2.92;2.72;;;17.40;99.90;;;;;;5041650;28;20211;-77
2023/05/24 02:45:33;;;;;;;2.95;2.67;;;17.40;99.90;;;;;;5040141;28;20218;-77
2023/05/24 02:48:00;;;;;;;3.00;2.80;;;17.30;99.90;;;;;;5043478;28;20253;-77
2023/05/24 02:50:27;;;;;;;3.08;2.88;;;17.30;99.90;;;;;;5037059;28;20200;-78
2023/05/24 02:52:55;;;;;;;3.20;3.00;;;17.30;99.90;;;;;;5038731;28;20678;-77
2023/05/24 02:55:22;;;;;;;3.50;3.20;;;17.30;99.90;;;;;;5040637;28;20223;-77
2023/05/24 02:57:49;;;;;;;3.25;3.05;;;17.30;99.90;;;;;;5042474;28;20210;-77
2023/05/24 03:00:17;;;;;;;3.00;2.80;;;17.30;99.90;;;;;;5040563;28;20204;-76
2023/05/24 03:02:46;;;;;;;3.25;3.05;;;17.20;99.90;;;;;;5040672;28;20219;-77
2023/05/24 03:05:13;;;;;;;3.50;3.20;;;17.20;99.90;;;;;;5040313;28;20714;-77
2023/05/24 03:07:41;;;;;;;3.17;2.97;;;17.20;99.90;;;;;;5037913;28;20203;-76
2023/05/24 03:10:10;;;;;;;3.53;3.22;;;17.20;99.90;;;;;;5037809;28;20215;-77
2023/05/24 03:12:37;;;;;;;3.30;3.10;;;17.20;99.90;;;;;;5035016;28;20330;-77
2023/05/24 03:15:04;;;;;;;3.30;3.10;;;17.20;99.90;;;;;;5037027;28;20246;-77
2023/05/24 03:17:31;;;;;;;3.13;2.90;;;17.20;99.90;;;;;;5038398;28;20200;-77
2023/05/24 03:19:58;;;;;;;3.05;2.85;;;17.10;99.90;;;;;;5037519;28;20203;-77
2023/05/24 03:22:25;;;;;;;3.95;3.65;;;17.20;99.90;;;;;;5038800;28;20273;-77
2023/05/24 03:24:52;;;;;;;3.05;2.85;;;17.20;99.90;;;;;;5040482;28;20219;-78
2023/05/24 03:27:20;;;;;;;3.22;3.03;;;17.20;99.90;;;;;;5034833;28;20239;-77
2023/05/24 03:29:47;;;;;;;3.15;2.95;;;17.20;99.90;;;;;;5040618;28;20202;-77
2023/05/24 03:32:14;;;;;;;3.10;2.90;;;17.20;99.90;;;;;;5041347;28;20196;-77
2023/05/24 03:34:41;;;;;;;3.97;3.30;;;17.20;99.90;;;;;;5041778;28;20236;-77
2023/05/24 03:37:08;;;;;;;3.08;2.88;;;17.20;99.90;;;;;;5045249;28;20215;-77
2023/05/24 03:39:35;;;;;;;3.20;2.90;;;17.20;99.90;;;;;;5041019;28;20206;-76
2023/05/24 03:42:02;;;;;;;3.53;3.22;;;17.20;99.90;;;;;;5044197;28;20231;-77
2023/05/24 03:44:30;;;;;;;2.90;2.70;;;17.20;99.90;;;;;;5041493;28;20195;-76
2023/05/24 03:46:57;;;;;;;3.00;2.80;;;17.20;99.90;;;;;;5045947;28;20226;-77
2023/05/24 03:49:24;;;;;;;3.10;2.90;;;17.20;99.90;;;;;;5048385;28;20199;-77
2023/05/24 03:51:51;;;;;;;3.40;3.20;;;17.30;99.90;;;;;;5041993;28;20215;-76
2023/05/24 03:54:18;;;;;;;3.38;3.17;;;17.20;99.90;;;;;;5046002;28;20782;-77
2023/05/24 03:56:45;;;;;;;3.08;2.88;;;17.30;99.90;;;;;;5038633;28;20844;-77
2023/05/24 03:59:12;;;;;;;2.72;2.53;;;17.30;99.90;;;;;;5040591;28;20202;-77
2023/05/24 04:01:40;;;;;;;3.17;2.97;;;17.30;99.90;;;;;;5039160;28;20219;-78
2023/05/24 04:04:07;;;;;;;3.67;3.38;;;17.10;99.90;;;;;;5041220;28;20265;-76
2023/05/24 04:06:35;;;;;;;3.30;3.00;;;16.90;99.90;;;;;;5041398;28;20219;-76
2023/05/24 04:09:04;;;;;;;3.75;3.45;;;16.70;99.90;;;;;;5041406;28;21145;-78
2023/05/24 04:11:31;;;;;;;3.67;3.25;;;16.50;99.90;;;;;;5036749;28;20199;-76
2023/05/24 04:14:00;;;;;;;3.65;3.35;;;16.40;99.90;;;;;;5041125;28;20198;-76
2023/05/24 04:16:27;;;;;;;3.65;3.35;;;16.30;99.90;;;;;;5034533;28;20226;-76
2023/05/24 04:18:56;;;;;;;3.83;3.53;;;16.20;99.90;;;;;;5039984;28;20279;-76
2023/05/24 04:21:23;;;;;;;3.70;3.35;;;16.20;99.90;;;;;;5038326;28;20215;-76
2023/05/24 04:23:50;;;;;;;3.60;3.30;;;16.10;99.90;;;;;;5038688;28;20277;-76
2023/05/24 04:26:21;;;;;;;3.55;3.25;;;16.10;99.90;;;;;;5045242;28;20660;-77
2023/05/24 04:28:48;;;;;;;3.28;3.08;;;16.10;99.90;;;;;;5038600;28;20272;-76
2023/05/24 04:31:15;;;;;;;3.28;3.08;;;16.20;99.90;;;;;;5043180;28;20196;-75
2023/05/24 04:33:42;;;;;;;3.28;3.08;;;16.20;99.90;;;;;;5048560;28;20286;-76
2023/05/24 04:36:12;;;;;;;3.50;3.15;;;16.20;99.90;;;;;;5048898;28;20244;-76
2023/05/24 04:38:39;;;;;;;3.35;3.15;;;16.20;99.90;;;;;;5045204;28;20227;-76
2023/05/24 04:41:07;;;;;;;3.75;3.45;;;16.30;99.90;;;;;;5050323;28;20211;-76
2023/05/24 04:43:34;;;;;;;3.75;3.45;;;16.30;99.90;;;;;;5053162;28;20301;-76
2023/05/24 04:46:01;;;;;;;3.50;3.30;;;16.30;99.90;;;;;;5053178;28;20760;-76
2023/05/24 04:48:28;;;;;;;3.13;2.92;;;16.30;99.90;;;;;;5053927;28;20196;-76
2023/05/24 04:50:56;;;;;;;3.72;3.42;;;16.40;99.90;;;;;;5053956;28;20210;-77
2023/05/24 04:53:25;;;;;;;3.40;3.10;;;16.40;99.90;;;;;;5046226;28;20234;-77
2023/05/24 04:55:52;;;;;;;3.63;3.28;;;16.40;99.90;;;;;;5049851;28;20683;-76
2023/05/24 04:58:19;;;;;;;4.53;3.70;;;16.40;99.90;;;;;;5046514;28;20199;-76
2023/05/24 05:00:47;;;;;;;3.78;3.47;;;16.40;99.90;;;;;;5039720;28;20219;-76
2023/05/24 05:03:14;;;;;;;3.53;3.22;;;16.40;99.90;;;;;;5040946;28;20219;-76
2023/05/24 05:05:41;;;;;;;4.30;3.95;;;16.40;99.90;;;;;;5039286;28;20831;-76
2023/05/24 05:08:08;;;;;;;3.97;3.67;;;16.40;99.90;;;;;;5036434;28;20257;-76
2023/05/24 05:10:37;;;;;;;5.00;3.88;;;16.40;99.90;;;;;;5041348;28;20206;-76
2023/05/24 05:13:04;;;;;;;4.60;4.13;;;16.40;99.90;;;;;;5039461;28;20192;-77
2023/05/24 05:15:31;;;;;;;6.50;4.97;;;16.30;99.90;;;;;;5036605;28;20295;-76
2023/05/24 05:17:59;;;;;;;5.40;4.70;;;16.30;99.90;;;;;;5031147;28;20215;-76
2023/05/24 05:20:25;;;;;;;4.88;4.47;;;16.30;99.90;;;;;;5031410;28;20196;-77
2023/05/24 05:22:52;;;;;;;3.88;3.58;;;16.20;99.90;;;;;;5028245;28;20302;-76
2023/05/24 05:25:20;;;;;;;4.38;4.03;;;16.20;99.90;;;;;;5033665;28;20220;-76
2023/05/24 05:27:48;;;;;;;4.00;3.70;;;16.30;99.90;;;;;;5028209;28;20200;-76
2023/05/24 05:30:15;;;;;;;4.10;3.80;;;16.30;99.90;;;;;;5025680;28;20650;-76
2023/05/24 05:32:42;;;;;;;4.18;3.88;;;16.40;99.90;;;;;;5032279;28;20242;-76
2023/05/24 05:35:09;;;;;;;4.38;4.07;;;16.40;99.90;;;;;;5032083;28;20223;-76
2023/05/24 05:37:36;;;;;;;4.28;3.95;;;16.50;99.90;;;;;;5036014;28;20195;-76
2023/05/24 05:40:04;;;;;;;4.07;3.78;;;16.50;99.90;;;;;;5033510;28;20238;-77
2023/05/24 05:42:31;;;;;;;4.15;3.85;;;16.60;99.90;;;;;;5032332;28;20306;-76
2023/05/24 05:44:59;;;;;;;4.60;4.30;;;16.70;99.90;;;;;;5031431;28;20265;-76
2023/05/24 05:47:26;;;;;;;4.30;4.00;;;16.90;99.90;;;;;;5029711;28;20191;-76
2023/05/24 05:49:53;;;;;;;4.32;4.03;;;17.00;99.90;;;;;;5027340;28;20261;-76
2023/05/24 05:52:20;;;;;;;4.35;4.05;;;17.10;99.90;;;;;;5027656;28;20235;-77
2023/05/24 05:54:46;;;;;;;5.40;4.40;;;17.10;99.90;;;;;;5033450;28;20921;-75
2023/05/24 05:57:15;;;;;;;4.30;3.90;;;17.10;99.90;;;;;;5028416;28;20241;-77
2023/05/24 05:59:42;;;;;;;4.97;4.40;;;17.20;99.90;;;;;;5031740;28;20199;-76
2023/05/24 06:02:11;;;;;;;3.63;3.33;;;17.10;99.90;;;;;;5029956;28;20252;-76
2023/05/24 06:04:38;;;;;;;4.50;4.10;;;17.20;99.90;;;;;;5036709;28;20216;-76
2023/05/24 06:07:06;;;;;;;5.00;4.50;;;17.20;99.90;;;;;;5027285;28;20984;-77
2023/05/24 06:09:33;;;;;;;4.70;4.30;;;17.20;99.90;;;;;;5022747;28;20817;-77
2023/05/24 06:12:00;;;;;;;4.82;4.43;;;17.20;99.90;;;;;;5025275;28;20203;-76
2023/05/24 06:14:26;;;;;;;5.05;4.55;;;17.10;99.90;;;;;;5029894;28;20207;-77
2023/05/24 06:16:54;;;;;;;5.38;4.85;;;17.10;99.90;;;;;;5024593;28;20258;-76
2023/05/24 06:19:22;;;;;;;5.05;4.65;;;17.20;99.90;;;;;;5031883;28;20286;-78
2023/05/24 06:21:49;;;;;;;5.80;5.30;;;17.20;99.90;;;;;;5028901;28;20226;-76
2023/05/24 06:24:19;;;;;;;5.22;4.72;;;17.20;99.90;;;;;;5029533;28;20276;-77
2023/05/24 06:26:46;;;;;;;4.90;4.50;;;17.20;99.90;;;;;;5037194;28;20207;-78
2023/05/24 06:29:13;;;;;;;5.15;4.75;;;17.20;99.90;;;;;;5033645;28;20263;-76
2023/05/24 06:31:41;;;;;;;5.10;4.70;;;17.20;99.90;;;;;;5035131;28;20231;-76
2023/05/24 06:34:08;;;;;;;5.05;4.65;;;17.20;99.90;;;;;;5032853;28;20196;-77
2023/05/24 06:36:40;;;;;;;4.78;4.38;;;17.20;99.90;;;;;;5032239;28;20219;-77
2023/05/24 06:39:07;;;;;;;5.15;4.70;;;17.10;99.90;;;;;;5030814;28;20285;-76
2023/05/24 06:41:34;;;;;;;5.00;4.60;;;17.10;99.90;;;;;;5033492;28;20213;-78
2023/05/24 06:44:01;;;;;;;5.60;5.10;;;17.10;99.90;;;;;;5035896;28;20220;-76
2023/05/24 06:46:28;;;;;;;5.32;4.93;;;17.10;99.90;;;;;;5039351;28;20265;-76
2023/05/24 06:48:55;;;;;;;5.68;5.18;;;17.20;99.90;;;;;;5033246;28;20202;-77
2023/05/24 06:51:22;;;;;;;5.40;4.90;;;17.30;99.90;;;;;;5028852;28;20211;-78
2023/05/24 06:53:51;;;;;;;5.63;5.13;;;17.40;99.90;;;;;;5025707;28;20196;-77
2023/05/24 06:56:18;;;;;;;5.40;4.90;;;17.40;99.90;;;;;;5026345;28;20223;-77
2023/05/24 06:58:44;;;;;;;4.95;4.55;;;17.50;99.90;;;;;;5028090;28;20218;-76
2023/05/24 07:01:13;;;;;;;5.30;4.90;;;17.50;99.90;;;;;;5036102;28;20269;-77
2023/05/24 07:03:40;;;;;;;5.72;5.22;;;17.60;99.90;;;;;;5036638;28;20219;-77
2023/05/24 07:06:08;;;;;;;5.93;5.40;;;17.70;99.90;;;;;;5037996;28;20223;-77
2023/05/24 07:08:35;;;;;;;5.85;5.30;;;17.80;99.90;;;;;;5038489;28;20221;-78
2023/05/24 07:11:03;;;;;;;6.07;5.57;;;17.90;99.90;;;;;;5033155;28;20227;-77
2023/05/24 07:13:30;;;;;;;5.55;5.05;;;18.00;99.90;;;;;;5036751;28;20230;-77
2023/05/24 07:15:57;;;;;;;5.78;5.25;;;18.00;99.90;;;;;;5037562;28;20220;-76
2023/05/24 07:18:24;;;;;;;6.50;5.90;;;18.00;99.90;;;;;;5038508;28;20578;-77
2023/05/24 07:20:52;;;;;;;5.93;5.32;;;18.10;99.90;;;;;;5038582;28;20238;-76
2023/05/24 07:23:18;;;;;;;5.75;5.25;;;18.20;99.90;;;;;;5035800;28;20302;-77
2023/05/24 07:25:45;;;;;;;6.38;5.35;;;18.30;99.90;;;;;;5037570;28;20648;-77
2023/05/24 07:28:16;;;;;;;5.78;5.38;;;18.30;99.90;;;;;;5043592;28;21084;-78
2023/05/24 07:30:44;;;;;;;5.78;5.30;;;18.40;99.90;;;;;;5044089;28;20194;-76
2023/05/24 07:33:11;;;;;;;5.95;5.45;;;18.60;99.90;;;;;;5045563;28;20202;-77
2023/05/24 07:35:38;;;;;;;6.40;5.57;;;18.90;99.90;;;;;;5037715;28;20222;-77
2023/05/24 07:38:05;;;;;;;6.35;5.85;;;19.00;99.90;;;;;;5045075;28;20199;-77
2023/05/24 07:40:32;;;;;;;6.78;5.53;;;19.00;99.90;;;;;;5036737;28;20666;-76
2023/05/24 07:42:59;;;;;;;5.82;5.32;;;19.20;99.90;;;;;;5038684;28;20232;-76
2023/05/24 07:45:28;;;;;;;6.75;5.68;;;19.20;99.90;;;;;;5035411;28;20224;-77
2023/05/24 07:47:55;;;;;;;5.97;5.47;;;19.40;99.90;;;;;;5035242;28;20226;-77
2023/05/24 07:50:23;;;;;;;5.82;5.32;;;19.50;99.90;;;;;;5035043;28;20211;-77
2023/05/24 07:52:51;;;;;;;5.80;5.30;;;19.60;99.90;;;;;;5037121;28;20223;-77
2023/05/24 07:55:18;;;;;;;6.93;6.18;;;19.70;99.90;;;;;;5037203;28;20215;-78
2023/05/24 07:57:45;;;;;;;5.90;5.40;;;19.70;99.90;;;;;;5035722;28;20199;-77
2023/05/24 08:00:14;;;;;;;5.63;5.07;;;19.80;99.90;;;;;;5037275;28;20231;-77
2023/05/24 08:02:45;;;;;;;5.53;4.90;;;19.80;99.90;;;;;;5037431;28;20202;-77
2023/05/24 08:05:12;;;;;;;5.43;4.93;;;19.90;99.90;;;;;;5031601;28;20230;-78
2023/05/24 08:07:40;;;;;;;5.30;4.80;;;20.00;99.90;;;;;;5035582;28;20581;-79
2023/05/24 08:10:09;;;;;;;5.50;5.10;;;20.10;99.90;;;;;;5037651;28;20269;-79
2023/05/24 08:12:36;;;;;;;4.60;4.20;;;20.10;99.90;;;;;;5031796;28;20625;-78
2023/05/24 08:15:03;;;;;;;4.65;4.25;;;20.30;99.90;;;;;;5031893;28;20238;-78
2023/05/24 08:17:30;;;;;;;4.38;3.92;;;20.40;99.90;;;;;;5047650;28;20187;-81
2023/05/24 08:21:01;;;;;;;4.95;4.20;;;20.30;99.90;;;;;;5034224;28;20192;-81
2023/05/24 08:23:29;;;;;;;4.32;3.95;;;20.40;99.90;;;;;;5035173;28;20227;-81
2023/05/24 08:26:07;;;;;;;4.63;4.22;;;20.70;99.90;;;;;;5028294;28;20226;-80
2023/05/24 08:28:36;;;;;;;4.22;3.80;;;20.70;99.90;;;;;;5038995;28;20195;-80
2023/05/24 08:31:06;;;;;;;4.68;4.28;;;21.10;99.90;;;;;;5036232;28;20203;-80
2023/05/24 08:36:56;;;;;;;5.00;4.50;;;21.00;99.90;;;;;;4940348;29;20809;-66
2023/05/24 08:39:25;;;;;;;4.22;3.90;;;20.90;99.90;;;;;;4943094;29;20289;-68
2023/05/24 08:41:52;;;;;;;4.55;4.20;;;20.80;99.90;;;;;;4943275;28;20884;-67
2023/05/24 08:44:21;;;;;;;4.20;3.90;;;20.70;99.90;;;;;;4941548;28;20277;-67
2023/05/24 08:46:49;;;;;;;4.65;4.20;;;20.80;99.90;;;;;;4939946;29;20273;-67
2023/05/24 08:49:17;;;;;;;4.72;4.32;;;21.10;99.90;;;;;;4938693;28;20210;-67
2023/05/24 08:51:45;;;;;;;4.25;3.95;;;21.20;99.90;;;;;;4938007;29;20199;-68
2023/05/24 08:54:13;;;;;;;6.15;4.35;;;21.40;99.90;;;;;;4937733;28;20229;-69
2023/05/24 08:56:42;;;;;;;4.95;4.55;;;21.40;99.90;;;;;;4939033;28;20218;-67
2023/05/24 08:59:12;;;;;;;3.92;3.63;;;21.40;99.90;;;;;;4938919;29;20230;-67
2023/05/24 09:01:41;;;;;;;4.60;4.20;;;21.40;99.90;;;;;;4938199;28;20507;-67
2023/05/24 09:04:08;;;;;;;4.47;4.05;;;21.30;99.90;;;;;;4937325;28;20233;-67
2023/05/24 09:06:36;;;;;;;4.28;3.88;;;21.30;99.90;;;;;;4930956;29;20375;-67
2023/05/24 09:09:04;;;;;;;4.80;4.40;;;21.10;99.90;;;;;;4931630;29;20214;-68
2023/05/24 09:11:32;;;;;;;4.72;4.32;;;21.20;99.90;;;;;;4940341;28;20202;-67
2023/05/24 09:14:02;;;;;;;4.30;3.90;;;21.30;99.90;;;;;;4938899;29;20203;-67
2023/05/24 09:16:29;;;;;;;5.00;4.32;;;21.30;99.90;;;;;;4931856;28;20262;-68
2023/05/24 09:18:56;;;;;;;4.60;4.20;;;21.30;99.90;;;;;;4933829;28;20696;-67
2023/05/24 09:21:25;;;;;;;4.82;4.38;;;21.60;99.90;;;;;;4934095;28;20211;-67
2023/05/24 09:23:53;;;;;;;4.18;3.88;;;22.20;99.90;;;;;;4937393;29;20305;-68
2023/05/24 09:26:21;;;;;;;4.40;4.07;;;22.10;99.90;;;;;;4937266;28;20852;-67
2023/05/24 09:28:50;;;;;;;4.15;3.85;;;22.00;99.90;;;;;;4936407;28;20202;-68
2023/05/24 09:31:18;;;;;;;3.90;3.60;;;22.10;99.90;;;;;;4931416;29;20490;-68
2023/05/24 09:33:49;;;;;;;4.05;3.70;;;22.40;99.90;;;;;;4933149;28;20286;-68
2023/05/24 09:36:17;;;;;;;5.65;4.10;;;22.90;99.90;;;;;;4932369;28;20649;-68
2023/05/24 09:38:44;;;;;;;4.43;3.90;;;23.40;99.90;;;;;;4933145;29;20294;-67
2023/05/24 09:41:12;;;;;;;4.75;4.35;;;23.70;99.90;;;;;;4934692;29;20206;-68
2023/05/24 09:43:48;;;;;;;4.38;3.97;;;23.70;99.90;;;;;;4931133;28;20786;-68
2023/05/24 09:46:19;;;;;;;4.22;3.90;;;23.90;99.90;;;;;;4935699;28;20304;-68
2023/05/24 09:48:56;;;;;;;3.80;3.50;;;24.00;99.90;;;;;;4938291;28;21216;-68
2023/05/24 09:51:24;;;;;;;7.07;4.53;;;24.30;99.90;;;;;;4930645;28;20210;-67
2023/05/24 09:53:51;;;;;;;4.82;3.95;;;24.30;99.90;;;;;;4934574;28;20269;-67
2023/05/24 09:56:19;;;;;;;4.13;3.83;;;23.80;99.90;;;;;;4935243;28;20248;-68
2023/05/24 09:58:46;;;;;;;3.75;3.45;;;23.50;99.90;;;;;;4938439;28;20233;-68
2023/05/24 10:01:15;;;;;;;4.20;3.80;;;23.10;99.90;;;;;;4948526;29;20242;-68
2023/05/24 10:03:53;;;;;;;4.50;4.10;;;22.70;99.90;;;;;;4946190;28;20805;-67
2023/05/24 10:06:21;;;;;;;4.50;4.10;;;22.30;99.90;;;;;;4940985;29;20729;-68
2023/05/24 10:08:49;;;;;;;3.70;3.40;;;22.00;99.90;;;;;;4936539;28;20213;-67
2023/05/24 10:11:16;;;;;;;4.55;3.75;;;21.80;99.90;;;;;;4936558;28;20296;-67
2023/05/24 10:13:44;;;;;;;4.43;3.80;;;21.70;99.90;;;;;;4936761;28;20202;-67
2023/05/24 10:16:13;;;;;;;3.58;3.28;;;21.60;99.90;;;;;;4941407;28;20304;-67
2023/05/24 10:18:40;;;;;;;4.63;3.83;;;21.60;99.90;;;;;;4938926;29;20236;-67
2023/05/24 10:21:10;;;;;;;5.78;3.80;;;21.50;99.90;;;;;;4937314;29;20293;-68
2023/05/24 10:23:39;;;;;;;4.15;3.75;;;21.50;99.90;;;;;;4940284;29;20198;-68
2023/05/24 10:26:08;;;;;;;5.85;4.15;;;21.40;99.90;;;;;;4940551;28;20334;-67
2023/05/24 10:28:43;;;;;;;4.07;3.67;;;21.30;99.90;;;;;;4940859;29;20245;-67
2023/05/24 10:31:13;;;;;;;3.60;3.30;;;21.30;99.90;;;;;;4936666;28;20297;-68
2023/05/24 10:33:42;;;;;;;4.18;3.88;;;21.10;99.90;;;;;;4937623;28;20205;-67
2023/05/24 10:36:14;;;;;;;6.55;4.18;;;21.00;99.90;;;;;;4930072;28;20234;-67
2023/05/24 10:38:42;;;;;;;4.80;3.83;;;20.90;99.90;;;;;;4938928;28;20213;-67
2023/05/24 10:41:09;;;;;;;5.68;4.10;;;21.00;99.90;;;;;;4937488;28;20199;-68
2023/05/24 10:43:37;;;;;;;4.88;4.20;;;21.10;99.90;;;;;;4938385;28;20232;-67
2023/05/24 10:46:05;;;;;;;4.80;3.90;;;21.20;99.90;;;;;;4934283;28;20320;-67
2023/05/24 10:48:37;;;;;;;6.90;4.40;;;21.30;99.90;;;;;;4937593;28;20206;-67
2023/05/24 10:51:46;;;;;;;4.93;3.65;;;21.40;99.90;;;;;;4939958;28;20898;-67
2023/05/24 10:54:18;;;;;;;3.50;3.20;;;21.40;99.90;;;;;;4937283;29;20238;-67
2023/05/24 10:56:47;;;;;;;3.55;3.25;;;21.20;99.90;;;;;;4933424;29;20762;-67
2023/05/24 10:59:23;;;;;;;3.55;2.92;;;21.00;99.90;;;;;;4948972;28;20198;-68
2023/05/24 11:01:59;;;;;;;3.70;3.40;;;20.90;99.90;;;;;;4938153;28;20225;-67
2023/05/24 11:04:28;;;;;;;3.63;3.33;;;20.90;99.90;;;;;;4936664;29;20224;-67
2023/05/24 11:07:00;;;;;;;3.08;2.85;;;20.80;99.90;;;;;;4935820;28;20222;-67
2023/05/24 11:09:28;;;;;;;5.28;4.78;;;20.80;99.90;;;;;;4933680;28;20693;-67
2023/05/24 11:11:57;;;;;;;4.70;4.30;;;20.40;99.90;;;;;;4940185;28;20770;-67
2023/05/24 11:14:27;;;;;;;5.68;5.18;;;19.70;99.90;;;;;;4937775;28;20242;-67
2023/05/24 11:16:55;;;;;;;6.68;4.65;;;19.30;99.90;;;;;;4937326;28;20227;-67
2023/05/24 11:19:24;;;;;;;4.57;4.18;;;19.00;99.90;;;;;;4940728;28;20206;-67
2023/05/24 11:21:57;;;;;;;4.47;4.05;;;18.90;99.90;;;;;;4939660;28;20241;-67
2023/05/24 11:24:27;;;;;;;5.03;4.53;;;18.90;99.90;;;;;;4921540;28;20297;-67
2023/05/24 11:26:55;;;;;;;4.70;4.30;;;19.00;99.90;;;;;;4936644;28;20221;-67
2023/05/24 11:29:23;;;;;;;4.78;4.38;;;19.10;99.90;;;;;;4933502;28;20213;-68
2023/05/24 11:31:51;;;;;;;5.13;4.63;;;19.20;99.90;;;;;;4940336;28;20293;-67
2023/05/24 11:34:19;;;;;;;4.50;4.10;;;19.40;99.90;;;;;;4941373;28;20253;-68
2023/05/24 11:36:47;;;;;;;5.55;5.05;;;19.40;99.90;;;;;;4937002;28;20250;-69
2023/05/24 11:39:14;;;;;;;4.63;4.20;;;19.50;99.90;;;;;;4942484;28;20237;-69
2023/05/24 11:41:43;;;;;;;5.93;3.88;;;19.60;99.90;;;;;;4940785;28;20206;-69
2023/05/24 11:44:11;;;;;;;4.68;4.28;;;19.50;99.90;;;;;;4939332;29;20842;-69
2023/05/24 11:46:40;;;;;;;4.32;3.97;;;19.50;99.90;;;;;;4940251;28;20285;-70
2023/05/24 11:49:07;;;;;;;4.30;3.95;;;19.50;99.90;;;;;;4936114;28;20202;-69
2023/05/24 11:51:36;;;;;;;4.45;4.03;;;19.40;99.90;;;;;;4932243;28;20238;-69
2023/05/24 11:54:04;;;;;;;7.80;4.15;;;19.20;99.90;;;;;;4939742;28;20218;-68
2023/05/24 11:56:32;;;;;;;5.60;5.10;;;19.20;99.90;;;;;;4941019;28;20229;-68
2023/05/24 11:59:16;;;;;;;7.65;5.55;;;18.90;99.90;;;;;;4945175;28;20248;-68
2023/05/24 12:01:43;;;;;;;5.93;5.43;;;18.60;99.90;;;;;;4942017;28;20206;-68
2023/05/24 12:04:11;;;;;;;5.93;5.43;;;18.20;99.90;;;;;;4944481;28;20342;-68
2023/05/24 12:06:40;;;;;;;5.68;5.18;;;18.10;99.90;;;;;;4943742;28;20321;-68
2023/05/24 12:09:18;;;;;;;4.57;4.20;;;18.10;99.90;;;;;;4942852;28;20312;-68
2023/05/24 12:11:48;;;;;;;5.05;4.65;;;18.30;99.90;;;;;;4941531;28;20198;-69
2023/05/24 12:14:18;;;;;;;5.22;4.72;;;18.40;99.90;;;;;;4941744;28;20688;-69
2023/05/24 12:16:47;;;;;;;5.32;4.93;;;18.50;99.90;;;;;;4948333;28;20268;-68
2023/05/24 12:19:18;;;;;;;4.80;4.40;;;18.60;99.90;;;;;;4946807;28;20297;-68
2023/05/24 12:21:46;;;;;;;4.82;4.43;;;18.70;99.90;;;;;;4948144;28;20625;-68
2023/05/24 12:24:16;;;;;;;4.50;4.10;;;18.80;99.90;;;;;;4946350;28;20292;-67
2023/05/24 12:26:44;;;;;;;3.95;3.65;;;18.80;99.90;;;;;;4942399;28;20250;-67
2023/05/24 12:29:12;;;;;;;4.25;3.85;;;18.80;99.90;;;;;;4941250;29;20237;-66
2023/05/24 12:31:47;;;;;;;4.28;3.97;;;18.80;99.90;;;;;;4943777;29;20261;-67
2023/05/24 12:34:15;;;;;;;4.07;3.78;;;18.80;99.90;;;;;;4942002;29;20209;-66
2023/05/24 12:36:43;;;;;;;5.63;4.25;;;18.80;99.90;;;;;;4939044;28;20482;-66
2023/05/24 12:39:21;;;;;;;6.95;5.78;;;18.80;99.90;;;;;;4940258;28;20218;-66
2023/05/24 12:41:52;;;;;;;6.82;5.22;;;18.60;99.90;;;;;;4937497;28;20206;-67
2023/05/24 12:44:24;;;;;;;5.30;4.90;;;18.30;99.90;;;;;;4938010;28;20206;-67
2023/05/24 12:46:53;;;;;;;5.35;4.90;;;18.00;99.90;;;;;;4935804;29;20245;-66
2023/05/24 12:49:20;;;;;;;5.22;4.75;;;17.80;99.90;;;;;;4937685;29;20519;-67
2023/05/24 12:51:47;;;;;;;4.65;4.25;;;17.70;99.90;;;;;;4939147;28;20318;-67
2023/05/24 12:54:15;;;;;;;4.43;4.03;;;17.70;99.90;;;;;;4938358;29;20297;-67
2023/05/24 12:56:42;;;;;;;3.90;3.60;;;17.80;99.90;;;;;;4937099;28;20316;-67
2023/05/24 12:59:09;;;;;;;4.03;3.72;;;17.80;99.90;;;;;;4937937;28;20234;-67